sensor_id;sensor_type;location;lat;lon;timestamp;P1;durP1;ratioP1;P2;durP2;ratioP2
4466;SDS011;2246;42.664;23.278;2022-07-29T00:01:56;10.55;;;7.30;;
4466;SDS011;2246;42.664;23.278;2022-07-29T00:04:22;9.95;;;6.90;;
4466;SDS011;2246;42.664;23.278;2022-07-29T00:06:48;9.52;;;6.88;;
4466;SDS011;2246;42.664;23.278;2022-07-29T00:09:14;8.40;;;6.90;;
4466;SDS011;2246;42.664;23.278;2022-07-29T00:11:40;10.13;;;7.20;;
4466;SDS011;2246;42.664;23.278;2022-07-29T00:14:07;11.77;;;7.90;;
4466;SDS011;2246;42.664;23.278;2022-07-29T00:16:33;14.40;;;7.40;;
4466;SDS011;2246;42.664;23.278;2022-07-29T00:18:59;11.05;;;7.40;;
4466;SDS011;2246;42.664;23.278;2022-07-29T00:21:25;17.35;;;8.20;;
4466;SDS011;2246;42.664;23.278;2022-07-29T00:23:51;11.68;;;8.35;;
4466;SDS011;2246;42.664;23.278;2022-07-29T00:26:17;13.77;;;8.15;;
4466;SDS011;2246;42.664;23.278;2022-07-29T00:28:43;11.93;;;8.18;;
4466;SDS011;2246;42.664;23.278;2022-07-29T00:31:09;12.38;;;8.38;;
4466;SDS011;2246;42.664;23.278;2022-07-29T00:33:35;13.38;;;8.00;;
4466;SDS011;2246;42.664;23.278;2022-07-29T00:36:02;16.55;;;9.05;;
4466;SDS011;2246;42.664;23.278;2022-07-29T00:38:28;14.38;;;8.55;;
4466;SDS011;2246;42.664;23.278;2022-07-29T00:40:54;13.63;;;8.20;;
4466;SDS011;2246;42.664;23.278;2022-07-29T00:43:20;12.57;;;8.80;;
4466;SDS011;2246;42.664;23.278;2022-07-29T00:45:46;11.88;;;8.55;;
4466;SDS011;2246;42.664;23.278;2022-07-29T00:48:12;9.90;;;8.18;;
4466;SDS011;2246;42.664;23.278;2022-07-29T00:50:39;12.98;;;8.38;;
4466;SDS011;2246;42.664;23.278;2022-07-29T00:53:05;13.20;;;9.05;;
4466;SDS011;2246;42.664;23.278;2022-07-29T00:55:31;13.15;;;8.35;;
4466;SDS011;2246;42.664;23.278;2022-07-29T00:57:58;11.93;;;8.23;;
4466;SDS011;2246;42.664;23.278;2022-07-29T01:00:25;14.82;;;9.13;;
4466;SDS011;2246;42.664;23.278;2022-07-29T01:02:51;11.27;;;8.90;;
4466;SDS011;2246;42.664;23.278;2022-07-29T01:05:18;13.38;;;10.15;;
4466;SDS011;2246;42.664;23.278;2022-07-29T01:07:45;16.42;;;9.95;;
4466;SDS011;2246;42.664;23.278;2022-07-29T01:10:12;13.50;;;9.30;;
4466;SDS011;2246;42.664;23.278;2022-07-29T01:12:39;11.95;;;9.10;;
4466;SDS011;2246;42.664;23.278;2022-07-29T01:15:05;15.18;;;10.07;;
4466;SDS011;2246;42.664;23.278;2022-07-29T01:17:33;12.35;;;10.32;;
4466;SDS011;2246;42.664;23.278;2022-07-29T01:30:12;17.15;;;11.90;;
4466;SDS011;2246;42.664;23.278;2022-07-29T01:32:38;17.27;;;11.45;;
4466;SDS011;2246;42.664;23.278;2022-07-29T01:35:06;16.63;;;11.73;;
4466;SDS011;2246;42.664;23.278;2022-07-29T01:42:57;15.20;;;11.80;;
4466;SDS011;2246;42.664;23.278;2022-07-29T01:45:40;14.00;;;11.43;;
4466;SDS011;2246;42.664;23.278;2022-07-29T01:48:18;16.67;;;11.25;;
4466;SDS011;2246;42.664;23.278;2022-07-29T01:50:49;15.60;;;11.32;;
4466;SDS011;2246;42.664;23.278;2022-07-29T01:53:18;17.95;;;10.20;;
4466;SDS011;2246;42.664;23.278;2022-07-29T01:55:47;16.92;;;9.90;;
4466;SDS011;2246;42.664;23.278;2022-07-29T01:58:14;17.20;;;10.10;;
4466;SDS011;2246;42.664;23.278;2022-07-29T02:00:41;16.47;;;10.50;;
4466;SDS011;2246;42.664;23.278;2022-07-29T02:03:09;15.35;;;9.45;;
4466;SDS011;2246;42.664;23.278;2022-07-29T02:05:37;12.65;;;9.70;;
4466;SDS011;2246;42.664;23.278;2022-07-29T02:08:04;20.23;;;9.93;;
4466;SDS011;2246;42.664;23.278;2022-07-29T02:10:31;13.43;;;9.68;;
4466;SDS011;2246;42.664;23.278;2022-07-29T02:12:58;15.45;;;10.63;;
4466;SDS011;2246;42.664;23.278;2022-07-29T02:15:25;16.58;;;10.02;;
4466;SDS011;2246;42.664;23.278;2022-07-29T02:17:54;17.67;;;9.77;;
4466;SDS011;2246;42.664;23.278;2022-07-29T02:20:22;11.52;;;9.50;;
4466;SDS011;2246;42.664;23.278;2022-07-29T02:22:48;13.32;;;9.73;;
4466;SDS011;2246;42.664;23.278;2022-07-29T02:25:15;13.10;;;9.47;;
4466;SDS011;2246;42.664;23.278;2022-07-29T02:27:42;19.70;;;11.20;;
4466;SDS011;2246;42.664;23.278;2022-07-29T02:30:08;12.77;;;10.00;;
4466;SDS011;2246;42.664;23.278;2022-07-29T02:32:36;12.52;;;9.75;;
4466;SDS011;2246;42.664;23.278;2022-07-29T02:35:03;16.25;;;10.70;;
4466;SDS011;2246;42.664;23.278;2022-07-29T02:37:30;13.67;;;10.40;;
4466;SDS011;2246;42.664;23.278;2022-07-29T02:39:56;17.35;;;10.45;;
4466;SDS011;2246;42.664;23.278;2022-07-29T02:42:23;15.50;;;10.30;;
4466;SDS011;2246;42.664;23.278;2022-07-29T02:44:50;13.30;;;10.47;;
4466;SDS011;2246;42.664;23.278;2022-07-29T02:47:18;16.65;;;11.32;;
4466;SDS011;2246;42.664;23.278;2022-07-29T02:49:59;14.60;;;11.23;;
4466;SDS011;2246;42.664;23.278;2022-07-29T02:54:56;17.92;;;11.00;;
4466;SDS011;2246;42.664;23.278;2022-07-29T02:57:29;15.02;;;11.63;;
4466;SDS011;2246;42.664;23.278;2022-07-29T02:59:57;17.83;;;12.75;;
4466;SDS011;2246;42.664;23.278;2022-07-29T03:04:49;19.48;;;12.48;;
4466;SDS011;2246;42.664;23.278;2022-07-29T03:07:18;13.18;;;10.30;;
4466;SDS011;2246;42.664;23.278;2022-07-29T03:09:44;13.65;;;10.50;;
4466;SDS011;2246;42.664;23.278;2022-07-29T03:12:11;16.52;;;10.35;;
4466;SDS011;2246;42.664;23.278;2022-07-29T03:14:37;19.95;;;10.60;;
4466;SDS011;2246;42.664;23.278;2022-07-29T03:17:04;14.35;;;10.27;;
4466;SDS011;2246;42.664;23.278;2022-07-29T03:19:30;16.05;;;10.57;;
4466;SDS011;2246;42.664;23.278;2022-07-29T03:21:57;18.88;;;10.75;;
4466;SDS011;2246;42.664;23.278;2022-07-29T03:24:25;12.33;;;10.53;;
4466;SDS011;2246;42.664;23.278;2022-07-29T03:26:51;15.30;;;11.30;;
4466;SDS011;2246;42.664;23.278;2022-07-29T03:29:17;21.40;;;11.30;;
4466;SDS011;2246;42.664;23.278;2022-07-29T03:31:43;14.55;;;10.35;;
4466;SDS011;2246;42.664;23.278;2022-07-29T03:34:09;17.90;;;10.20;;
4466;SDS011;2246;42.664;23.278;2022-07-29T03:36:35;13.48;;;10.63;;
4466;SDS011;2246;42.664;23.278;2022-07-29T03:39:01;14.32;;;11.25;;
4466;SDS011;2246;42.664;23.278;2022-07-29T03:41:27;18.10;;;10.32;;
4466;SDS011;2246;42.664;23.278;2022-07-29T03:43:54;17.15;;;11.32;;
4466;SDS011;2246;42.664;23.278;2022-07-29T03:46:21;16.50;;;11.20;;
4466;SDS011;2246;42.664;23.278;2022-07-29T03:48:48;17.15;;;10.55;;
4466;SDS011;2246;42.664;23.278;2022-07-29T03:51:16;14.48;;;10.35;;
4466;SDS011;2246;42.664;23.278;2022-07-29T03:53:42;17.27;;;11.38;;
4466;SDS011;2246;42.664;23.278;2022-07-29T03:56:08;15.52;;;11.25;;
4466;SDS011;2246;42.664;23.278;2022-07-29T03:58:35;15.02;;;11.80;;
4466;SDS011;2246;42.664;23.278;2022-07-29T04:01:02;24.37;;;12.63;;
4466;SDS011;2246;42.664;23.278;2022-07-29T04:03:28;15.20;;;11.38;;
4466;SDS011;2246;42.664;23.278;2022-07-29T04:06:02;16.20;;;12.00;;
4466;SDS011;2246;42.664;23.278;2022-07-29T04:08:30;21.77;;;12.05;;
4466;SDS011;2246;42.664;23.278;2022-07-29T04:10:57;17.10;;;11.27;;
4466;SDS011;2246;42.664;23.278;2022-07-29T04:13:23;16.15;;;11.50;;
4466;SDS011;2246;42.664;23.278;2022-07-29T04:15:49;16.73;;;10.93;;
4466;SDS011;2246;42.664;23.278;2022-07-29T04:18:15;18.00;;;11.10;;
4466;SDS011;2246;42.664;23.278;2022-07-29T04:20:42;14.18;;;10.55;;
4466;SDS011;2246;42.664;23.278;2022-07-29T04:23:08;18.75;;;11.40;;
4466;SDS011;2246;42.664;23.278;2022-07-29T04:25:36;16.73;;;11.73;;
4466;SDS011;2246;42.664;23.278;2022-07-29T04:28:03;16.13;;;13.00;;
4466;SDS011;2246;42.664;23.278;2022-07-29T04:30:29;16.55;;;12.55;;
4466;SDS011;2246;42.664;23.278;2022-07-29T04:32:56;21.23;;;14.27;;
4466;SDS011;2246;42.664;23.278;2022-07-29T04:35:22;18.98;;;12.50;;
4466;SDS011;2246;42.664;23.278;2022-07-29T04:37:48;20.63;;;12.93;;
4466;SDS011;2246;42.664;23.278;2022-07-29T04:40:14;17.55;;;13.15;;
4466;SDS011;2246;42.664;23.278;2022-07-29T04:42:40;21.30;;;12.15;;
4466;SDS011;2246;42.664;23.278;2022-07-29T04:45:06;19.77;;;12.65;;
4466;SDS011;2246;42.664;23.278;2022-07-29T04:47:32;23.90;;;12.95;;
4466;SDS011;2246;42.664;23.278;2022-07-29T04:49:58;16.30;;;12.02;;
4466;SDS011;2246;42.664;23.278;2022-07-29T04:52:24;17.50;;;12.63;;
4466;SDS011;2246;42.664;23.278;2022-07-29T04:54:51;18.63;;;12.45;;
4466;SDS011;2246;42.664;23.278;2022-07-29T04:57:17;19.40;;;13.32;;
4466;SDS011;2246;42.664;23.278;2022-07-29T04:59:43;16.65;;;12.35;;
4466;SDS011;2246;42.664;23.278;2022-07-29T05:02:09;24.63;;;13.40;;
4466;SDS011;2246;42.664;23.278;2022-07-29T05:04:35;18.85;;;13.20;;
4466;SDS011;2246;42.664;23.278;2022-07-29T05:07:01;21.13;;;13.60;;
4466;SDS011;2246;42.664;23.278;2022-07-29T05:09:27;18.30;;;13.10;;
4466;SDS011;2246;42.664;23.278;2022-07-29T05:11:53;21.50;;;12.93;;
4466;SDS011;2246;42.664;23.278;2022-07-29T05:14:19;18.00;;;13.05;;
4466;SDS011;2246;42.664;23.278;2022-07-29T05:16:45;21.88;;;13.52;;
4466;SDS011;2246;42.664;23.278;2022-07-29T05:19:11;17.15;;;12.35;;
4466;SDS011;2246;42.664;23.278;2022-07-29T05:21:38;20.42;;;13.15;;
4466;SDS011;2246;42.664;23.278;2022-07-29T05:24:04;24.58;;;13.38;;
4466;SDS011;2246;42.664;23.278;2022-07-29T05:26:30;20.95;;;13.02;;
4466;SDS011;2246;42.664;23.278;2022-07-29T05:28:56;22.30;;;13.57;;
4466;SDS011;2246;42.664;23.278;2022-07-29T05:31:22;19.70;;;10.48;;
4466;SDS011;2246;42.664;23.278;2022-07-29T05:33:48;13.45;;;7.97;;
4466;SDS011;2246;42.664;23.278;2022-07-29T05:36:14;10.60;;;7.00;;
4466;SDS011;2246;42.664;23.278;2022-07-29T05:38:40;13.77;;;7.25;;
4466;SDS011;2246;42.664;23.278;2022-07-29T05:41:06;8.82;;;6.47;;
4466;SDS011;2246;42.664;23.278;2022-07-29T05:43:32;10.95;;;6.50;;
4466;SDS011;2246;42.664;23.278;2022-07-29T05:45:58;14.98;;;6.70;;
4466;SDS011;2246;42.664;23.278;2022-07-29T05:48:25;10.15;;;5.90;;
4466;SDS011;2246;42.664;23.278;2022-07-29T05:50:51;8.02;;;5.78;;
4466;SDS011;2246;42.664;23.278;2022-07-29T05:53:17;9.15;;;5.75;;
4466;SDS011;2246;42.664;23.278;2022-07-29T05:55:43;8.00;;;6.00;;
4466;SDS011;2246;42.664;23.278;2022-07-29T05:58:09;11.98;;;5.22;;
4466;SDS011;2246;42.664;23.278;2022-07-29T06:00:35;11.43;;;5.95;;
4466;SDS011;2246;42.664;23.278;2022-07-29T06:03:01;15.10;;;5.90;;
4466;SDS011;2246;42.664;23.278;2022-07-29T06:05:27;12.20;;;6.18;;
4466;SDS011;2246;42.664;23.278;2022-07-29T06:07:54;11.27;;;5.18;;
4466;SDS011;2246;42.664;23.278;2022-07-29T06:10:20;12.02;;;5.85;;
4466;SDS011;2246;42.664;23.278;2022-07-29T06:12:46;9.52;;;5.25;;
4466;SDS011;2246;42.664;23.278;2022-07-29T06:15:12;10.57;;;5.38;;
4466;SDS011;2246;42.664;23.278;2022-07-29T06:17:38;8.57;;;5.05;;
4466;SDS011;2246;42.664;23.278;2022-07-29T06:20:04;6.47;;;4.68;;
4466;SDS011;2246;42.664;23.278;2022-07-29T06:22:30;9.25;;;5.22;;
4466;SDS011;2246;42.664;23.278;2022-07-29T06:24:56;7.88;;;4.88;;
4466;SDS011;2246;42.664;23.278;2022-07-29T06:27:22;9.32;;;5.38;;
4466;SDS011;2246;42.664;23.278;2022-07-29T06:29:49;20.10;;;7.68;;
4466;SDS011;2246;42.664;23.278;2022-07-29T06:32:15;21.27;;;7.97;;
4466;SDS011;2246;42.664;23.278;2022-07-29T06:34:41;11.88;;;7.10;;
4466;SDS011;2246;42.664;23.278;2022-07-29T06:37:07;11.73;;;6.40;;
4466;SDS011;2246;42.664;23.278;2022-07-29T06:39:34;14.20;;;6.40;;
4466;SDS011;2246;42.664;23.278;2022-07-29T06:42:01;12.00;;;6.05;;
4466;SDS011;2246;42.664;23.278;2022-07-29T06:44:27;10.63;;;5.93;;
4466;SDS011;2246;42.664;23.278;2022-07-29T06:46:53;10.05;;;5.95;;
4466;SDS011;2246;42.664;23.278;2022-07-29T06:49:19;9.38;;;5.18;;
4466;SDS011;2246;42.664;23.278;2022-07-29T06:51:45;5.72;;;4.95;;
4466;SDS011;2246;42.664;23.278;2022-07-29T06:54:12;11.68;;;5.30;;
4466;SDS011;2246;42.664;23.278;2022-07-29T06:56:38;7.82;;;5.57;;
4466;SDS011;2246;42.664;23.278;2022-07-29T06:59:10;7.82;;;5.22;;
4466;SDS011;2246;42.664;23.278;2022-07-29T07:01:37;7.65;;;5.22;;
4466;SDS011;2246;42.664;23.278;2022-07-29T07:04:03;9.38;;;5.25;;
4466;SDS011;2246;42.664;23.278;2022-07-29T07:06:29;11.98;;;5.20;;
4466;SDS011;2246;42.664;23.278;2022-07-29T07:08:55;8.80;;;5.53;;
4466;SDS011;2246;42.664;23.278;2022-07-29T07:11:21;8.15;;;5.63;;
4466;SDS011;2246;42.664;23.278;2022-07-29T07:13:47;12.48;;;5.60;;
4466;SDS011;2246;42.664;23.278;2022-07-29T07:16:14;8.10;;;5.22;;
4466;SDS011;2246;42.664;23.278;2022-07-29T07:18:40;10.93;;;5.23;;
4466;SDS011;2246;42.664;23.278;2022-07-29T07:21:07;10.73;;;6.22;;
4466;SDS011;2246;42.664;23.278;2022-07-29T07:23:33;11.60;;;5.18;;
4466;SDS011;2246;42.664;23.278;2022-07-29T07:25:59;11.98;;;5.72;;
4466;SDS011;2246;42.664;23.278;2022-07-29T07:28:25;7.97;;;5.13;;
4466;SDS011;2246;42.664;23.278;2022-07-29T07:30:51;10.43;;;5.65;;
4466;SDS011;2246;42.664;23.278;2022-07-29T07:33:17;10.15;;;5.22;;
4466;SDS011;2246;42.664;23.278;2022-07-29T07:35:43;12.43;;;5.57;;
4466;SDS011;2246;42.664;23.278;2022-07-29T07:38:09;10.70;;;5.18;;
4466;SDS011;2246;42.664;23.278;2022-07-29T07:40:36;7.35;;;4.97;;
4466;SDS011;2246;42.664;23.278;2022-07-29T07:43:02;10.82;;;4.82;;
4466;SDS011;2246;42.664;23.278;2022-07-29T07:45:28;11.52;;;5.03;;
4466;SDS011;2246;42.664;23.278;2022-07-29T07:47:54;9.15;;;4.55;;
4466;SDS011;2246;42.664;23.278;2022-07-29T07:50:20;10.30;;;5.07;;
4466;SDS011;2246;42.664;23.278;2022-07-29T07:52:47;10.43;;;5.13;;
4466;SDS011;2246;42.664;23.278;2022-07-29T07:57:39;6.15;;;4.43;;
4466;SDS011;2246;42.664;23.278;2022-07-29T08:00:06;7.65;;;4.68;;
4466;SDS011;2246;42.664;23.278;2022-07-29T08:02:32;17.90;;;4.47;;
4466;SDS011;2246;42.664;23.278;2022-07-29T08:04:58;7.00;;;4.13;;
4466;SDS011;2246;42.664;23.278;2022-07-29T08:07:24;6.72;;;4.35;;
4466;SDS011;2246;42.664;23.278;2022-07-29T08:09:51;7.95;;;3.97;;
4466;SDS011;2246;42.664;23.278;2022-07-29T08:12:17;8.93;;;4.28;;
4466;SDS011;2246;42.664;23.278;2022-07-29T08:14:43;7.82;;;4.20;;
4466;SDS011;2246;42.664;23.278;2022-07-29T08:17:09;6.13;;;4.13;;
4466;SDS011;2246;42.664;23.278;2022-07-29T08:19:35;5.70;;;4.07;;
4466;SDS011;2246;42.664;23.278;2022-07-29T08:22:02;5.82;;;3.55;;
4466;SDS011;2246;42.664;23.278;2022-07-29T08:24:28;6.22;;;3.80;;
4466;SDS011;2246;42.664;23.278;2022-07-29T08:27:17;5.25;;;3.47;;
4466;SDS011;2246;42.664;23.278;2022-07-29T08:29:44;7.50;;;4.10;;
4466;SDS011;2246;42.664;23.278;2022-07-29T08:32:10;6.35;;;4.13;;
4466;SDS011;2246;42.664;23.278;2022-07-29T08:34:36;10.77;;;4.50;;
4466;SDS011;2246;42.664;23.278;2022-07-29T08:37:02;6.97;;;3.78;;
4466;SDS011;2246;42.664;23.278;2022-07-29T08:39:29;12.85;;;4.25;;
4466;SDS011;2246;42.664;23.278;2022-07-29T08:41:55;6.97;;;3.83;;
4466;SDS011;2246;42.664;23.278;2022-07-29T08:44:21;7.63;;;3.88;;
4466;SDS011;2246;42.664;23.278;2022-07-29T08:46:48;5.85;;;3.72;;
4466;SDS011;2246;42.664;23.278;2022-07-29T08:49:14;6.85;;;3.90;;
4466;SDS011;2246;42.664;23.278;2022-07-29T08:51:40;7.72;;;3.92;;
4466;SDS011;2246;42.664;23.278;2022-07-29T08:54:08;7.90;;;3.42;;
4466;SDS011;2246;42.664;23.278;2022-07-29T08:56:35;5.22;;;3.47;;
4466;SDS011;2246;42.664;23.278;2022-07-29T09:01:29;5.80;;;3.50;;
4466;SDS011;2246;42.664;23.278;2022-07-29T09:03:55;7.65;;;5.32;;
4466;SDS011;2246;42.664;23.278;2022-07-29T09:06:21;7.30;;;4.10;;
4466;SDS011;2246;42.664;23.278;2022-07-29T09:08:48;6.65;;;4.10;;
4466;SDS011;2246;42.664;23.278;2022-07-29T09:11:14;6.20;;;3.92;;
4466;SDS011;2246;42.664;23.278;2022-07-29T09:13:41;4.47;;;3.20;;
4466;SDS011;2246;42.664;23.278;2022-07-29T09:16:07;6.70;;;3.50;;
4466;SDS011;2246;42.664;23.278;2022-07-29T09:21:02;4.55;;;3.22;;
4466;SDS011;2246;42.664;23.278;2022-07-29T09:26:28;7.97;;;3.88;;
4466;SDS011;2246;42.664;23.278;2022-07-29T09:28:55;6.55;;;3.20;;
4466;SDS011;2246;42.664;23.278;2022-07-29T09:31:35;5.30;;;2.97;;
4466;SDS011;2246;42.664;23.278;2022-07-29T09:34:01;5.35;;;3.22;;
4466;SDS011;2246;42.664;23.278;2022-07-29T09:36:28;9.13;;;3.60;;
4466;SDS011;2246;42.664;23.278;2022-07-29T09:39:00;5.93;;;3.78;;
4466;SDS011;2246;42.664;23.278;2022-07-29T09:41:27;6.88;;;3.35;;
4466;SDS011;2246;42.664;23.278;2022-07-29T09:43:57;5.45;;;3.40;;
4466;SDS011;2246;42.664;23.278;2022-07-29T09:46:24;7.60;;;3.88;;
4466;SDS011;2246;42.664;23.278;2022-07-29T09:51:46;6.90;;;4.10;;
4466;SDS011;2246;42.664;23.278;2022-07-29T09:54:22;13.18;;;3.50;;
4466;SDS011;2246;42.664;23.278;2022-07-29T09:56:48;12.25;;;4.22;;
4466;SDS011;2246;42.664;23.278;2022-07-29T09:59:14;5.93;;;3.90;;
4466;SDS011;2246;42.664;23.278;2022-07-29T10:01:41;4.60;;;3.83;;
4466;SDS011;2246;42.664;23.278;2022-07-29T10:04:07;5.45;;;3.95;;
4466;SDS011;2246;42.664;23.278;2022-07-29T10:06:33;5.00;;;4.00;;
4466;SDS011;2246;42.664;23.278;2022-07-29T10:09:09;7.60;;;3.80;;
4466;SDS011;2246;42.664;23.278;2022-07-29T10:11:36;4.95;;;4.13;;
4466;SDS011;2246;42.664;23.278;2022-07-29T10:14:02;10.88;;;3.88;;
4466;SDS011;2246;42.664;23.278;2022-07-29T10:16:30;7.10;;;4.07;;
4466;SDS011;2246;42.664;23.278;2022-07-29T10:18:59;4.22;;;3.50;;
4466;SDS011;2246;42.664;23.278;2022-07-29T10:21:26;7.88;;;3.75;;
4466;SDS011;2246;42.664;23.278;2022-07-29T10:23:52;7.40;;;4.07;;
4466;SDS011;2246;42.664;23.278;2022-07-29T10:26:21;10.82;;;4.25;;
4466;SDS011;2246;42.664;23.278;2022-07-29T10:28:47;7.65;;;4.18;;
4466;SDS011;2246;42.664;23.278;2022-07-29T10:31:22;9.10;;;4.00;;
4466;SDS011;2246;42.664;23.278;2022-07-29T10:33:55;7.85;;;4.30;;
4466;SDS011;2246;42.664;23.278;2022-07-29T10:36:43;6.65;;;3.72;;
4466;SDS011;2246;42.664;23.278;2022-07-29T10:44:23;5.18;;;4.00;;
4466;SDS011;2246;42.664;23.278;2022-07-29T10:46:50;8.23;;;4.15;;
4466;SDS011;2246;42.664;23.278;2022-07-29T10:54:19;7.22;;;4.00;;
4466;SDS011;2246;42.664;23.278;2022-07-29T10:57:15;6.60;;;4.55;;
4466;SDS011;2246;42.664;23.278;2022-07-29T10:59:42;6.32;;;4.43;;
4466;SDS011;2246;42.664;23.278;2022-07-29T11:07:10;9.90;;;4.47;;
4466;SDS011;2246;42.664;23.278;2022-07-29T11:09:41;8.35;;;4.60;;
4466;SDS011;2246;42.664;23.278;2022-07-29T11:17:22;9.05;;;4.10;;
4466;SDS011;2246;42.664;23.278;2022-07-29T11:19:48;7.68;;;4.20;;
4466;SDS011;2246;42.664;23.278;2022-07-29T11:22:32;7.28;;;4.30;;
4466;SDS011;2246;42.664;23.278;2022-07-29T11:25:17;5.18;;;4.40;;
4466;SDS011;2246;42.664;23.278;2022-07-29T11:27:44;5.72;;;4.30;;
4466;SDS011;2246;42.664;23.278;2022-07-29T11:30:10;5.68;;;4.10;;
4466;SDS011;2246;42.664;23.278;2022-07-29T11:32:40;7.80;;;4.35;;
4466;SDS011;2246;42.664;23.278;2022-07-29T11:35:20;5.28;;;4.45;;
4466;SDS011;2246;42.664;23.278;2022-07-29T11:40:33;5.38;;;3.85;;
4466;SDS011;2246;42.664;23.278;2022-07-29T11:42:59;5.90;;;4.05;;
4466;SDS011;2246;42.664;23.278;2022-07-29T11:45:25;11.57;;;4.57;;
4466;SDS011;2246;42.664;23.278;2022-07-29T11:47:57;5.68;;;4.18;;
4466;SDS011;2246;42.664;23.278;2022-07-29T11:52:53;9.10;;;4.10;;
4466;SDS011;2246;42.664;23.278;2022-07-29T11:55:20;5.97;;;4.22;;
4466;SDS011;2246;42.664;23.278;2022-07-29T11:57:54;6.28;;;3.90;;
4466;SDS011;2246;42.664;23.278;2022-07-29T12:02:56;6.43;;;4.20;;
4466;SDS011;2246;42.664;23.278;2022-07-29T12:05:30;9.25;;;4.10;;
4466;SDS011;2246;42.664;23.278;2022-07-29T12:07:58;4.72;;;4.22;;
4466;SDS011;2246;42.664;23.278;2022-07-29T12:10:30;14.48;;;10.20;;
4466;SDS011;2246;42.664;23.278;2022-07-29T12:12:56;10.93;;;5.10;;
4466;SDS011;2246;42.664;23.278;2022-07-29T12:15:22;6.25;;;3.85;;
4466;SDS011;2246;42.664;23.278;2022-07-29T12:17:50;5.55;;;4.05;;
4466;SDS011;2246;42.664;23.278;2022-07-29T12:20:27;8.40;;;4.20;;
4466;SDS011;2246;42.664;23.278;2022-07-29T12:25:19;10.63;;;4.50;;
4466;SDS011;2246;42.664;23.278;2022-07-29T12:27:46;4.95;;;4.00;;
4466;SDS011;2246;42.664;23.278;2022-07-29T12:30:13;4.97;;;4.25;;
4466;SDS011;2246;42.664;23.278;2022-07-29T12:32:44;5.43;;;4.40;;
4466;SDS011;2246;42.664;23.278;2022-07-29T12:35:11;5.70;;;4.28;;
4466;SDS011;2246;42.664;23.278;2022-07-29T12:37:38;4.63;;;3.80;;
4466;SDS011;2246;42.664;23.278;2022-07-29T12:40:06;6.68;;;4.50;;
4466;SDS011;2246;42.664;23.278;2022-07-29T12:42:32;5.20;;;4.35;;
4466;SDS011;2246;42.664;23.278;2022-07-29T12:44:59;5.05;;;4.03;;
4466;SDS011;2246;42.664;23.278;2022-07-29T12:47:25;8.38;;;4.65;;
4466;SDS011;2246;42.664;23.278;2022-07-29T12:49:52;6.22;;;4.32;;
4466;SDS011;2246;42.664;23.278;2022-07-29T12:52:33;8.02;;;4.25;;
4466;SDS011;2246;42.664;23.278;2022-07-29T12:54:59;4.13;;;3.70;;
4466;SDS011;2246;42.664;23.278;2022-07-29T12:57:26;7.95;;;4.10;;
4466;SDS011;2246;42.664;23.278;2022-07-29T12:59:59;8.02;;;4.05;;
4466;SDS011;2246;42.664;23.278;2022-07-29T13:02:25;5.68;;;4.68;;
4466;SDS011;2246;42.664;23.278;2022-07-29T13:04:58;4.85;;;3.97;;
4466;SDS011;2246;42.664;23.278;2022-07-29T13:07:28;7.85;;;4.55;;
4466;SDS011;2246;42.664;23.278;2022-07-29T13:09:58;7.63;;;4.60;;
4466;SDS011;2246;42.664;23.278;2022-07-29T13:12:34;6.95;;;4.20;;
4466;SDS011;2246;42.664;23.278;2022-07-29T13:15:11;7.20;;;4.50;;
4466;SDS011;2246;42.664;23.278;2022-07-29T13:17:41;8.10;;;4.77;;
4466;SDS011;2246;42.664;23.278;2022-07-29T13:20:08;5.85;;;4.95;;
4466;SDS011;2246;42.664;23.278;2022-07-29T13:22:37;7.75;;;5.40;;
4466;SDS011;2246;42.664;23.278;2022-07-29T13:25:03;13.13;;;4.40;;
4466;SDS011;2246;42.664;23.278;2022-07-29T13:27:34;4.60;;;4.20;;
4466;SDS011;2246;42.664;23.278;2022-07-29T13:30:02;7.78;;;4.68;;
4466;SDS011;2246;42.664;23.278;2022-07-29T13:32:28;8.38;;;4.50;;
4466;SDS011;2246;42.664;23.278;2022-07-29T13:34:55;8.38;;;4.20;;
4466;SDS011;2246;42.664;23.278;2022-07-29T13:37:21;7.93;;;4.40;;
4466;SDS011;2246;42.664;23.278;2022-07-29T13:39:47;8.18;;;4.90;;
4466;SDS011;2246;42.664;23.278;2022-07-29T13:42:14;8.23;;;4.75;;
4466;SDS011;2246;42.664;23.278;2022-07-29T13:44:40;9.43;;;4.50;;
4466;SDS011;2246;42.664;23.278;2022-07-29T13:47:07;6.57;;;4.57;;
4466;SDS011;2246;42.664;23.278;2022-07-29T13:49:33;10.13;;;4.83;;
4466;SDS011;2246;42.664;23.278;2022-07-29T13:51:59;8.07;;;4.60;;
4466;SDS011;2246;42.664;23.278;2022-07-29T13:54:25;4.68;;;4.15;;
4466;SDS011;2246;42.664;23.278;2022-07-29T13:56:51;5.45;;;3.78;;
4466;SDS011;2246;42.664;23.278;2022-07-29T13:59:17;5.65;;;4.50;;
4466;SDS011;2246;42.664;23.278;2022-07-29T14:01:44;8.87;;;4.07;;
4466;SDS011;2246;42.664;23.278;2022-07-29T14:04:10;5.18;;;4.25;;
4466;SDS011;2246;42.664;23.278;2022-07-29T14:06:36;4.97;;;4.35;;
4466;SDS011;2246;42.664;23.278;2022-07-29T14:09:03;5.35;;;4.47;;
4466;SDS011;2246;42.664;23.278;2022-07-29T14:11:33;4.72;;;3.83;;
4466;SDS011;2246;42.664;23.278;2022-07-29T14:13:59;4.70;;;4.13;;
4466;SDS011;2246;42.664;23.278;2022-07-29T14:16:25;5.82;;;4.32;;
4466;SDS011;2246;42.664;23.278;2022-07-29T14:18:51;6.50;;;4.47;;
4466;SDS011;2246;42.664;23.278;2022-07-29T14:21:17;6.57;;;4.45;;
4466;SDS011;2246;42.664;23.278;2022-07-29T14:23:44;7.78;;;4.55;;
4466;SDS011;2246;42.664;23.278;2022-07-29T14:26:10;6.22;;;4.40;;
4466;SDS011;2246;42.664;23.278;2022-07-29T14:28:36;6.00;;;4.43;;
4466;SDS011;2246;42.664;23.278;2022-07-29T14:31:02;5.25;;;4.10;;
4466;SDS011;2246;42.664;23.278;2022-07-29T14:33:28;6.07;;;4.55;;
4466;SDS011;2246;42.664;23.278;2022-07-29T14:35:54;7.53;;;4.40;;
4466;SDS011;2246;42.664;23.278;2022-07-29T14:38:20;4.90;;;4.40;;
4466;SDS011;2246;42.664;23.278;2022-07-29T14:40:46;6.03;;;4.47;;
4466;SDS011;2246;42.664;23.278;2022-07-29T14:43:13;8.43;;;4.57;;
4466;SDS011;2246;42.664;23.278;2022-07-29T14:45:40;8.63;;;4.73;;
4466;SDS011;2246;42.664;23.278;2022-07-29T14:48:06;5.80;;;4.63;;
4466;SDS011;2246;42.664;23.278;2022-07-29T14:50:32;5.82;;;4.70;;
4466;SDS011;2246;42.664;23.278;2022-07-29T14:52:59;6.15;;;4.80;;
4466;SDS011;2246;42.664;23.278;2022-07-29T14:55:25;4.72;;;4.28;;
4466;SDS011;2246;42.664;23.278;2022-07-29T14:57:51;6.78;;;4.60;;
4466;SDS011;2246;42.664;23.278;2022-07-29T15:00:17;5.05;;;4.00;;
4466;SDS011;2246;42.664;23.278;2022-07-29T15:02:44;6.82;;;5.07;;
4466;SDS011;2246;42.664;23.278;2022-07-29T15:05:10;9.60;;;4.70;;
4466;SDS011;2246;42.664;23.278;2022-07-29T15:07:36;7.53;;;4.68;;
4466;SDS011;2246;42.664;23.278;2022-07-29T15:10:02;5.00;;;4.30;;
4466;SDS011;2246;42.664;23.278;2022-07-29T15:12:29;5.65;;;4.75;;
4466;SDS011;2246;42.664;23.278;2022-07-29T15:14:55;7.77;;;4.70;;
4466;SDS011;2246;42.664;23.278;2022-07-29T15:17:21;10.68;;;4.78;;
4466;SDS011;2246;42.664;23.278;2022-07-29T15:19:47;6.72;;;4.53;;
4466;SDS011;2246;42.664;23.278;2022-07-29T15:22:13;5.88;;;4.45;;
4466;SDS011;2246;42.664;23.278;2022-07-29T15:24:39;5.90;;;4.03;;
4466;SDS011;2246;42.664;23.278;2022-07-29T15:27:06;7.10;;;4.38;;
4466;SDS011;2246;42.664;23.278;2022-07-29T15:29:32;9.00;;;4.68;;
4466;SDS011;2246;42.664;23.278;2022-07-29T15:31:58;6.10;;;4.55;;
4466;SDS011;2246;42.664;23.278;2022-07-29T15:34:24;12.45;;;4.90;;
4466;SDS011;2246;42.664;23.278;2022-07-29T15:36:50;8.65;;;4.47;;
4466;SDS011;2246;42.664;23.278;2022-07-29T15:39:16;8.23;;;4.35;;
4466;SDS011;2246;42.664;23.278;2022-07-29T15:41:42;10.68;;;5.35;;
4466;SDS011;2246;42.664;23.278;2022-07-29T15:44:08;9.98;;;4.85;;
4466;SDS011;2246;42.664;23.278;2022-07-29T15:46:34;7.18;;;4.53;;
4466;SDS011;2246;42.664;23.278;2022-07-29T15:49:19;6.40;;;4.72;;
4466;SDS011;2246;42.664;23.278;2022-07-29T15:51:46;9.75;;;4.40;;
4466;SDS011;2246;42.664;23.278;2022-07-29T15:54:12;8.23;;;4.72;;
4466;SDS011;2246;42.664;23.278;2022-07-29T15:56:38;9.65;;;4.57;;